createdAt,value
2023-03-11T00:00:58.105Z,0.00
2023-03-11T00:01:58.092Z,0.00
2023-03-11T00:03:48.917Z,0.00
2023-03-11T00:04:48.927Z,0.00
2023-03-11T00:05:48.920Z,0.00
2023-03-11T00:06:48.903Z,0.00
2023-03-11T00:07:48.894Z,0.00
2023-03-11T00:08:48.885Z,0.00
2023-03-11T00:09:48.881Z,0.00
2023-03-11T00:10:48.882Z,0.00
2023-03-11T00:11:48.850Z,0.00
2023-03-11T00:12:48.854Z,0.00
2023-03-11T00:13:48.851Z,0.00
2023-03-11T00:14:48.826Z,0.00
2023-03-11T00:15:48.825Z,0.00
2023-03-11T00:16:48.861Z,0.00
2023-03-11T00:17:48.801Z,0.00
2023-03-11T00:18:48.784Z,0.00
2023-03-11T00:19:48.788Z,0.00
2023-03-11T00:20:48.782Z,0.00
2023-03-11T00:21:48.750Z,0.00
2023-03-11T00:22:48.738Z,0.00
2023-03-11T00:23:48.733Z,0.00
2023-03-11T00:24:48.724Z,0.00
2023-03-11T00:25:48.714Z,0.00
2023-03-11T00:26:48.702Z,0.00
2023-03-11T00:27:48.700Z,0.00
2023-03-11T00:28:48.693Z,0.00
2023-03-11T00:29:48.697Z,0.00
2023-03-11T00:30:48.752Z,0.00
2023-03-11T00:31:48.647Z,0.00
2023-03-11T00:32:48.673Z,0.00
2023-03-11T00:33:48.622Z,0.00
2023-03-11T00:34:48.627Z,0.00
2023-03-11T00:35:48.611Z,0.00
2023-03-11T00:36:48.605Z,0.00
2023-03-11T00:37:48.579Z,0.00
2023-03-11T00:38:48.645Z,0.00
2023-03-11T00:39:48.560Z,0.00
2023-03-11T00:40:48.557Z,0.00
2023-03-11T00:41:48.558Z,0.00
2023-03-11T00:42:48.540Z,0.00
2023-03-11T00:43:48.520Z,0.00
2023-03-11T00:44:48.525Z,0.00
2023-03-11T00:45:48.527Z,0.00
2023-03-11T00:46:48.503Z,0.00
2023-03-11T00:47:48.475Z,0.00
2023-03-11T00:48:48.477Z,0.00
2023-03-11T00:49:48.454Z,0.00
2023-03-11T00:50:48.442Z,0.00
2023-03-11T00:51:48.445Z,0.00
2023-03-11T00:52:48.445Z,0.00
2023-03-11T00:53:48.408Z,0.00
2023-03-11T00:54:48.407Z,0.00
2023-03-11T00:55:48.389Z,0.00
2023-03-11T00:56:48.390Z,0.00
2023-03-11T00:57:48.380Z,0.00
2023-03-11T00:58:48.371Z,0.00
2023-03-11T00:59:48.351Z,0.00
2023-03-11T01:00:48.341Z,0.00
2023-03-11T01:01:48.332Z,0.00
2023-03-11T01:02:48.322Z,0.00
2023-03-11T01:03:48.314Z,0.00
2023-03-11T01:04:48.363Z,0.00
2023-03-11T01:05:48.289Z,0.00
2023-03-11T01:06:48.282Z,0.00
2023-03-11T01:07:48.262Z,0.00
2023-03-11T01:08:48.262Z,0.00
2023-03-11T01:09:48.244Z,0.00
2023-03-11T01:10:48.232Z,0.00
2023-03-11T01:11:48.231Z,0.00
2023-03-11T01:12:48.217Z,0.00
2023-03-11T01:13:48.195Z,0.00
2023-03-11T01:14:48.189Z,0.00
2023-03-11T01:15:48.179Z,0.00
2023-03-11T01:16:48.181Z,0.00
2023-03-11T01:17:48.155Z,0.00
2023-03-11T01:18:48.146Z,0.00
2023-03-11T01:19:48.134Z,0.00
2023-03-11T01:20:48.201Z,0.00
2023-03-11T01:21:48.124Z,0.00
2023-03-11T01:22:48.106Z,0.00
2023-03-11T01:23:48.088Z,0.00
2023-03-11T01:24:48.087Z,0.00
2023-03-11T01:25:48.075Z,0.00
2023-03-11T01:26:48.113Z,0.00
2023-03-11T01:27:48.085Z,0.00
2023-03-11T01:28:48.053Z,0.00
2023-03-11T01:29:48.025Z,0.00
2023-03-11T01:30:48.053Z,0.00
2023-03-11T01:31:48.024Z,0.00
2023-03-11T01:32:48.017Z,0.00
2023-03-11T01:33:47.993Z,0.00
2023-03-11T01:34:47.974Z,0.00
2023-03-11T01:35:47.981Z,0.00
2023-03-11T01:36:47.978Z,0.00
2023-03-11T01:37:47.956Z,0.00
2023-03-11T01:38:47.943Z,0.00
2023-03-11T01:39:47.925Z,0.00
2023-03-11T01:40:47.920Z,0.00
2023-03-11T01:41:47.932Z,0.00
2023-03-11T01:42:47.891Z,0.00
2023-03-11T01:43:47.892Z,0.00
2023-03-11T01:44:47.868Z,0.00
2023-03-11T01:45:47.875Z,0.00
2023-03-11T01:46:47.956Z,0.00
2023-03-11T01:47:47.829Z,0.00
2023-03-11T01:48:47.825Z,0.00
2023-03-11T01:49:47.805Z,0.00
2023-03-11T01:50:47.833Z,0.00
2023-03-11T01:51:47.835Z,0.00
2023-03-11T01:52:47.796Z,0.00
2023-03-11T01:53:47.771Z,0.00
2023-03-11T01:54:49.566Z,0.00
2023-03-11T01:55:47.740Z,0.00
2023-03-11T01:56:47.761Z,0.00
2023-03-11T01:57:47.734Z,0.00
2023-03-11T01:58:47.707Z,0.00
2023-03-11T01:59:47.696Z,0.00
2023-03-11T02:00:47.693Z,0.00
2023-03-11T02:01:47.755Z,0.00
2023-03-11T02:02:47.761Z,0.00
2023-03-11T02:03:47.655Z,0.00
2023-03-11T02:04:47.662Z,0.00
2023-03-11T02:05:47.637Z,0.00
2023-03-11T02:06:47.658Z,0.00
2023-03-11T02:07:47.617Z,0.00
2023-03-11T02:08:47.607Z,0.00
2023-03-11T02:09:47.593Z,0.00
2023-03-11T02:10:47.589Z,0.00
2023-03-11T02:11:47.576Z,0.00
2023-03-11T02:12:47.578Z,0.00
2023-03-11T02:13:47.547Z,0.00
2023-03-11T02:14:47.541Z,0.00
2023-03-11T02:15:47.576Z,0.00
2023-03-11T02:16:47.522Z,0.00
2023-03-11T02:17:47.523Z,0.00
2023-03-11T02:18:47.508Z,0.00
2023-03-11T02:19:47.483Z,0.00
2023-03-11T02:20:47.495Z,0.00
2023-03-11T02:21:47.476Z,0.00
2023-03-11T02:22:47.489Z,0.00
2023-03-11T02:23:47.452Z,0.00
2023-03-11T02:24:47.446Z,0.00
2023-03-11T02:25:47.442Z,0.00
2023-03-11T02:26:47.417Z,0.00
2023-03-11T02:27:47.425Z,0.00
2023-03-11T02:28:47.403Z,0.00
2023-03-11T02:29:47.399Z,0.00
2023-03-11T02:30:47.385Z,0.00
2023-03-11T02:31:47.425Z,0.00
2023-03-11T02:32:47.418Z,0.00
2023-03-11T02:33:47.348Z,0.00
2023-03-11T02:34:47.340Z,0.00
2023-03-11T02:35:47.355Z,0.00
2023-03-11T02:36:47.314Z,0.00
2023-03-11T02:37:47.352Z,0.00
2023-03-11T02:38:47.289Z,0.00
2023-03-11T02:39:47.285Z,0.00
2023-03-11T02:40:47.265Z,0.00
2023-03-11T02:41:47.272Z,0.00
2023-03-11T02:42:47.272Z,0.00
2023-03-11T02:43:47.245Z,0.00
2023-03-11T02:44:47.224Z,0.00
2023-03-11T02:45:47.223Z,0.00
2023-03-11T02:46:47.242Z,0.00
2023-03-11T02:47:47.224Z,0.00
2023-03-11T02:48:47.179Z,0.00
2023-03-11T02:49:47.173Z,0.00
2023-03-11T02:50:47.155Z,0.00
2023-03-11T02:51:47.144Z,0.00
2023-03-11T02:52:47.157Z,0.00
2023-03-11T02:53:47.131Z,0.00
2023-03-11T02:54:47.119Z,0.00
2023-03-11T02:55:47.112Z,0.00
2023-03-11T02:56:47.091Z,0.00
2023-03-11T02:57:47.092Z,0.00
2023-03-11T02:58:47.068Z,0.00
2023-03-11T02:59:47.066Z,0.00
2023-03-11T03:00:47.077Z,0.00
2023-03-11T03:01:47.040Z,0.00
2023-03-11T03:02:47.035Z,0.00
2023-03-11T03:03:47.075Z,0.00
2023-03-11T03:04:47.006Z,0.00
2023-03-11T03:05:47.002Z,0.00
2023-03-11T03:06:46.985Z,0.00
2023-03-11T03:07:46.981Z,0.00
2023-03-11T03:08:46.961Z,0.00
2023-03-11T03:09:46.950Z,0.00
2023-03-11T03:10:46.936Z,0.00
2023-03-11T03:11:46.935Z,0.00
2023-03-11T03:12:46.935Z,0.00
2023-03-11T03:13:46.911Z,0.00
2023-03-11T03:14:46.895Z,0.00
2023-03-11T03:15:46.899Z,0.00
2023-03-11T03:16:47.008Z,0.00
2023-03-11T03:17:46.893Z,0.00
2023-03-11T03:18:46.855Z,0.00
2023-03-11T03:19:46.851Z,0.00
2023-03-11T03:20:46.827Z,0.00
2023-03-11T03:21:46.830Z,0.00
2023-03-11T03:22:46.815Z,0.00
2023-03-11T03:23:46.819Z,0.00
2023-03-11T03:24:46.796Z,0.00
2023-03-11T03:25:46.781Z,0.00
2023-03-11T03:26:46.770Z,0.00
2023-03-11T03:27:46.768Z,0.00
2023-03-11T03:28:46.757Z,0.00
2023-03-11T03:29:46.740Z,0.00
2023-03-11T03:30:46.735Z,0.00
2023-03-11T03:31:46.768Z,0.00
2023-03-11T03:32:46.756Z,0.00
2023-03-11T03:33:46.712Z,0.00
2023-03-11T03:34:46.681Z,0.00
2023-03-11T03:35:46.714Z,0.00
2023-03-11T03:36:46.680Z,0.00
2023-03-11T03:37:46.656Z,0.00
2023-03-11T03:38:47.823Z,0.00
2023-03-11T03:39:47.799Z,0.00
2023-03-11T03:40:47.780Z,0.00
2023-03-11T03:41:47.828Z,0.00
2023-03-11T03:42:47.776Z,0.00
2023-03-11T03:43:47.749Z,0.00
2023-03-11T03:44:47.747Z,0.00
2023-03-11T03:45:47.779Z,0.00
2023-03-11T03:46:47.731Z,0.00
2023-03-11T03:47:47.691Z,0.00
2023-03-11T03:48:47.729Z,0.00
2023-03-11T03:49:47.715Z,0.00
2023-03-11T03:50:47.703Z,0.00
2023-03-11T03:51:47.649Z,0.00
2023-03-11T03:52:47.675Z,0.00
2023-03-11T03:53:47.667Z,0.00
2023-03-11T03:54:47.665Z,0.00
2023-03-11T03:55:47.649Z,0.00
2023-03-11T03:56:47.645Z,0.00
2023-03-11T03:57:47.602Z,0.00
2023-03-11T03:58:47.626Z,0.00
2023-03-11T03:59:47.585Z,0.00
2023-03-11T04:00:47.586Z,0.00
2023-03-11T04:01:47.589Z,0.00
2023-03-11T04:02:47.580Z,0.00
2023-03-11T04:03:47.631Z,0.00
2023-03-11T04:04:47.552Z,0.00
2023-03-11T04:05:47.519Z,0.00
2023-03-11T04:06:47.526Z,0.00
2023-03-11T04:07:47.532Z,0.00
2023-03-11T04:08:47.556Z,0.00
2023-03-11T04:09:47.484Z,0.00
2023-03-11T04:10:47.483Z,0.00
2023-03-11T04:11:47.489Z,0.00
2023-03-11T04:12:47.466Z,0.00
2023-03-11T04:13:47.494Z,0.00
2023-03-11T04:14:47.474Z,0.00
2023-03-11T04:15:47.436Z,0.00
2023-03-11T04:16:47.464Z,0.00
2023-03-11T04:17:47.432Z,0.00
2023-03-11T04:18:47.445Z,0.00
2023-03-11T04:19:47.405Z,0.00
2023-03-11T04:20:47.382Z,0.00
2023-03-11T04:21:47.378Z,0.00
2023-03-11T04:22:47.375Z,0.00
2023-03-11T04:23:47.379Z,0.00
2023-03-11T04:24:47.332Z,0.00
2023-03-11T04:25:47.336Z,0.00
2023-03-11T04:26:47.334Z,0.00
2023-03-11T04:27:47.326Z,0.00
2023-03-11T04:28:47.326Z,0.00
2023-03-11T04:29:47.301Z,0.00
2023-03-11T04:30:47.346Z,0.00
2023-03-11T04:31:47.292Z,0.00
2023-03-11T04:32:47.323Z,0.00
2023-03-11T04:33:47.269Z,0.00
2023-03-11T04:34:47.242Z,0.00
2023-03-11T04:35:47.250Z,0.00
2023-03-11T04:36:47.226Z,0.00
2023-03-11T04:37:47.208Z,0.00
2023-03-11T04:38:47.204Z,0.00
2023-03-11T04:39:47.187Z,0.00
2023-03-11T04:40:47.184Z,0.00
2023-03-11T04:41:47.179Z,0.00
2023-03-11T04:42:47.188Z,0.00
2023-03-11T04:43:47.169Z,0.00
2023-03-11T04:44:47.127Z,0.00
2023-03-11T04:45:48.152Z,0.00
2023-03-11T04:46:47.127Z,0.00
2023-03-11T04:47:47.120Z,0.00
2023-03-11T04:48:47.114Z,0.00
2023-03-11T04:49:47.097Z,0.00
2023-03-11T04:50:47.123Z,0.00
2023-03-11T04:51:47.105Z,0.00
2023-03-11T04:52:47.077Z,0.00
2023-03-11T04:53:47.063Z,0.00
2023-03-11T04:54:47.082Z,0.00
2023-03-11T04:55:47.061Z,0.00
2023-03-11T04:56:47.035Z,0.00
2023-03-11T04:57:47.024Z,0.00
2023-03-11T04:58:47.015Z,0.00
2023-03-11T04:59:46.989Z,0.00
2023-03-11T05:00:46.996Z,0.00
2023-03-11T05:01:46.989Z,0.00
2023-03-11T05:02:46.966Z,0.00
2023-03-11T05:03:46.976Z,0.00
2023-03-11T05:04:46.980Z,0.00
2023-03-11T05:05:46.930Z,0.00
2023-03-11T05:06:46.919Z,0.00
2023-03-11T05:07:46.927Z,0.00
2023-03-11T05:08:46.933Z,0.00
2023-03-11T05:09:46.902Z,0.00
2023-03-11T05:10:46.886Z,0.00
2023-03-11T05:11:46.875Z,0.00
2023-03-11T05:12:46.861Z,0.00
2023-03-11T05:13:46.871Z,0.00
2023-03-11T05:14:46.837Z,0.00
2023-03-11T05:15:46.868Z,0.00
2023-03-11T05:16:46.825Z,0.00
2023-03-11T05:17:46.860Z,0.00
2023-03-11T05:18:46.837Z,0.00
2023-03-11T05:19:46.799Z,4.00
2023-03-11T05:20:46.793Z,4.00
2023-03-11T05:21:46.776Z,0.00
2023-03-11T05:22:46.783Z,0.00
2023-03-11T05:23:46.769Z,4.00
2023-03-11T05:24:46.786Z,4.00
2023-03-11T05:25:46.747Z,4.00
2023-03-11T05:26:48.522Z,4.00
2023-03-11T05:27:47.725Z,4.00
2023-03-11T05:28:46.708Z,8.00
2023-03-11T05:29:46.729Z,8.00
2023-03-11T05:30:46.684Z,8.00
2023-03-11T05:31:46.668Z,8.00
2023-03-11T05:32:46.683Z,12.00
2023-03-11T05:33:46.672Z,12.00
2023-03-11T05:34:46.665Z,12.00
2023-03-11T05:35:46.636Z,16.00
2023-03-11T05:36:46.621Z,20.00
2023-03-11T05:37:46.634Z,24.00
2023-03-11T05:38:46.610Z,24.00
2023-03-11T05:39:46.594Z,28.00
2023-03-11T05:40:46.570Z,32.00
2023-03-11T05:41:46.566Z,36.00
2023-03-11T05:42:46.556Z,40.00
2023-03-11T05:43:46.560Z,52.00
2023-03-11T05:44:46.560Z,56.00
2023-03-11T05:45:46.507Z,68.00
2023-03-11T05:46:46.590Z,76.00
2023-03-11T05:47:46.492Z,84.00
2023-03-11T05:48:46.513Z,88.00
2023-03-11T05:49:46.481Z,88.00
2023-03-11T05:50:46.477Z,88.00
2023-03-11T05:51:46.461Z,92.00
2023-03-11T05:52:46.455Z,104.00
2023-03-11T05:53:46.466Z,120.00
2023-03-11T05:54:46.433Z,144.00
2023-03-11T05:55:46.418Z,160.00
2023-03-11T05:56:46.417Z,180.00
2023-03-11T05:57:46.402Z,200.00
2023-03-11T05:58:46.417Z,212.00
2023-03-11T05:59:46.389Z,216.00
2023-03-11T06:00:46.383Z,224.00
2023-03-11T06:01:46.393Z,244.00
2023-03-11T06:02:46.359Z,256.00
2023-03-11T06:03:46.524Z,248.00
2023-03-11T06:04:46.476Z,240.00
2023-03-11T06:05:46.340Z,236.00
2023-03-11T06:06:46.318Z,228.00
2023-03-11T06:07:46.314Z,228.00
2023-03-11T06:08:46.292Z,232.00
2023-03-11T06:09:46.302Z,240.00
2023-03-11T06:10:48.554Z,248.00
2023-03-11T06:11:47.252Z,260.00
2023-03-11T06:12:46.253Z,280.00
2023-03-11T06:13:46.236Z,300.00
2023-03-11T06:14:46.251Z,300.00
2023-03-11T06:15:46.238Z,296.00
2023-03-11T06:16:46.227Z,292.00
2023-03-11T06:17:46.211Z,304.00
2023-03-11T06:18:46.207Z,320.00
2023-03-11T06:19:46.187Z,336.00
2023-03-11T06:20:46.165Z,344.00
2023-03-11T06:21:46.159Z,364.00
2023-03-11T06:22:46.159Z,380.00
2023-03-11T06:23:46.147Z,416.00
2023-03-11T06:24:46.137Z,444.00
2023-03-11T06:25:46.197Z,468.00
2023-03-11T06:26:46.112Z,496.00
2023-03-11T06:27:46.117Z,528.00
2023-03-11T06:28:46.081Z,540.00
2023-03-11T06:29:48.354Z,524.00
2023-03-11T06:30:46.104Z,528.00
2023-03-11T06:31:46.098Z,544.00
2023-03-11T06:32:46.080Z,552.00
2023-03-11T06:33:46.038Z,572.00
2023-03-11T06:34:46.034Z,596.00
2023-03-11T06:35:46.038Z,616.00
2023-03-11T06:36:46.018Z,632.00
2023-03-11T06:37:45.998Z,664.00
2023-03-11T06:38:45.989Z,676.00
2023-03-11T06:39:45.993Z,688.00
2023-03-11T06:40:45.987Z,676.00
2023-03-11T06:41:45.949Z,660.00
2023-03-11T06:42:45.966Z,632.00
2023-03-11T06:43:45.965Z,620.00
2023-03-11T06:44:45.959Z,608.00
2023-03-11T06:45:45.979Z,616.00
2023-03-11T06:46:45.909Z,624.00
2023-03-11T06:47:46.885Z,628.00
2023-03-11T06:48:45.884Z,636.00
2023-03-11T06:49:45.886Z,636.00
2023-03-11T06:50:48.422Z,664.00
2023-03-11T06:51:46.852Z,700.00
2023-03-11T06:52:45.857Z,732.00
2023-03-11T06:53:45.820Z,760.00
2023-03-11T06:54:45.828Z,768.00
2023-03-11T06:55:45.830Z,768.00
2023-03-11T06:56:45.801Z,744.00
2023-03-11T06:57:45.795Z,700.00
2023-03-11T06:58:45.797Z,664.00
2023-03-11T06:59:45.787Z,648.00
2023-03-11T07:00:45.811Z,640.00
2023-03-11T07:01:45.758Z,652.00
2023-03-11T07:02:45.746Z,656.00
2023-03-11T07:03:45.725Z,644.00
2023-03-11T07:04:45.734Z,632.00
2023-03-11T07:05:45.719Z,628.00
2023-03-11T07:06:45.689Z,632.00
2023-03-11T07:07:45.697Z,624.00
2023-03-11T07:08:45.680Z,624.00
2023-03-11T07:09:45.682Z,664.00
2023-03-11T07:10:45.637Z,708.00
2023-03-11T07:11:45.630Z,716.00
2023-03-11T07:12:45.612Z,728.00
2023-03-11T07:13:46.613Z,744.00
2023-03-11T07:14:45.610Z,760.00
2023-03-11T07:15:45.593Z,772.00
2023-03-11T07:16:45.601Z,796.00
2023-03-11T07:17:45.566Z,844.00
2023-03-11T07:18:45.563Z,908.00
2023-03-11T07:19:45.564Z,960.00
2023-03-11T07:20:45.545Z,1020.00
2023-03-11T07:21:45.532Z,1036.00
2023-03-11T07:22:45.524Z,1028.00
2023-03-11T07:23:45.512Z,976.00
2023-03-11T07:24:45.510Z,908.00
2023-03-11T07:25:45.493Z,852.00
2023-03-11T07:26:45.489Z,848.00
2023-03-11T07:27:45.475Z,868.00
2023-03-11T07:28:45.489Z,896.00
2023-03-11T07:29:45.497Z,944.00
2023-03-11T07:30:45.443Z,1092.00
2023-03-11T07:31:45.536Z,1272.00
2023-03-11T07:32:45.444Z,1364.00
2023-03-11T07:33:45.408Z,1396.00
2023-03-11T07:34:45.428Z,1420.00
2023-03-11T07:35:45.440Z,1464.00
2023-03-11T07:36:45.443Z,1448.00
2023-03-11T07:37:45.369Z,1424.00
2023-03-11T07:38:45.369Z,1428.00
2023-03-11T07:39:45.362Z,1400.00
2023-03-11T07:40:45.341Z,1360.00
2023-03-11T07:41:45.334Z,1392.00
2023-03-11T07:42:45.326Z,1460.00
2023-03-11T07:43:45.311Z,1572.00
2023-03-11T07:44:45.308Z,1636.00
2023-03-11T07:45:45.349Z,1660.00
2023-03-11T07:46:45.270Z,1712.00
2023-03-11T07:47:45.320Z,1752.00
2023-03-11T07:48:45.259Z,1888.00
2023-03-11T07:49:45.276Z,2032.00
2023-03-11T07:50:45.305Z,2128.00
2023-03-11T07:51:45.249Z,2220.00
2023-03-11T07:52:45.266Z,2296.00
2023-03-11T07:53:45.255Z,2412.00
2023-03-11T07:54:45.241Z,2540.00
2023-03-11T07:55:45.202Z,2652.00
2023-03-11T07:56:45.214Z,2752.00
2023-03-11T07:57:45.190Z,2824.00
2023-03-11T07:58:45.910Z,2880.00
2023-03-11T07:59:46.185Z,2884.00
2023-03-11T08:00:45.170Z,2912.00
2023-03-11T08:01:45.145Z,2956.00
2023-03-11T08:02:45.199Z,3040.00
2023-03-11T08:03:45.200Z,3196.00
2023-03-11T08:04:45.131Z,3252.00
2023-03-11T08:05:45.120Z,3320.00
2023-03-11T08:06:45.108Z,3392.00
2023-03-11T08:07:45.096Z,3496.00
2023-03-11T08:08:45.070Z,3844.00
2023-03-11T08:09:45.055Z,3760.00
2023-03-11T08:10:45.044Z,3648.00
2023-03-11T08:11:45.028Z,3584.00
2023-03-11T08:12:45.060Z,3700.00
2023-03-11T08:13:45.073Z,3668.00
2023-03-11T08:14:45.050Z,3812.00
2023-03-11T08:15:45.031Z,3724.00
2023-03-11T08:16:45.017Z,3900.00
2023-03-11T08:17:44.965Z,4276.00
2023-03-11T08:18:44.973Z,3492.00
2023-03-11T08:19:44.969Z,3236.00
2023-03-11T08:20:44.946Z,3132.00
2023-03-11T08:21:44.933Z,3196.00
2023-03-11T08:22:57.321Z,4580.00
2023-03-11T08:23:46.928Z,6668.00
2023-03-11T08:24:44.927Z,6636.00
2023-03-11T08:25:44.907Z,6972.00
2023-03-11T08:26:44.896Z,7508.00
2023-03-11T08:27:44.878Z,7824.00
2023-03-11T08:28:44.864Z,7972.00
2023-03-11T08:29:44.868Z,6700.00
2023-03-11T08:30:44.880Z,6784.00
2023-03-11T08:31:44.846Z,5160.00
2023-03-11T08:32:44.870Z,4748.00
2023-03-11T08:33:44.821Z,7804.00
2023-03-11T08:34:44.866Z,8060.00
2023-03-11T08:35:44.821Z,6132.00
2023-03-11T08:36:44.788Z,5604.00
2023-03-11T08:37:44.783Z,5152.00
2023-03-11T08:38:44.806Z,6200.00
2023-03-11T08:39:44.813Z,4844.00
2023-03-11T08:40:44.754Z,4412.00
2023-03-11T08:41:44.751Z,4332.00
2023-03-11T08:42:44.751Z,4148.00
2023-03-11T08:43:44.752Z,4124.00
2023-03-11T08:44:45.730Z,3752.00
2023-03-11T08:45:44.699Z,3188.00
2023-03-11T08:46:44.757Z,2820.00
2023-03-11T08:47:44.676Z,2832.00
2023-03-11T08:48:44.682Z,3036.00
2023-03-11T08:49:44.658Z,3088.00
2023-03-11T08:50:54.009Z,3112.00
2023-03-11T08:51:46.649Z,3156.00
2023-03-11T08:52:44.627Z,3416.00
2023-03-11T08:53:44.625Z,4564.00
2023-03-11T08:54:44.607Z,4052.00
2023-03-11T08:55:44.614Z,4172.00
2023-03-11T08:56:44.639Z,4328.00
2023-03-11T08:57:44.594Z,4380.00
2023-03-11T08:58:44.569Z,6016.00
2023-03-11T08:59:44.569Z,5660.00
2023-03-11T09:00:44.571Z,4300.00
2023-03-11T09:01:44.559Z,4676.00
2023-03-11T09:02:44.587Z,4380.00
2023-03-11T09:03:44.561Z,7876.00
2023-03-11T09:04:44.542Z,8960.00
2023-03-11T09:05:44.576Z,5564.00
2023-03-11T09:06:44.510Z,4732.00
2023-03-11T09:07:44.486Z,4784.00
2023-03-11T09:08:44.480Z,5532.00
2023-03-11T09:09:44.466Z,9824.00
2023-03-11T09:10:44.474Z,10096.00
2023-03-11T09:11:44.449Z,5872.00
2023-03-11T09:12:44.440Z,5896.00
2023-03-11T09:13:44.418Z,9152.00
2023-03-11T09:14:44.412Z,8068.00
2023-03-11T09:15:44.416Z,10192.00
2023-03-11T09:16:44.398Z,6124.00
2023-03-11T09:17:44.390Z,6132.00
2023-03-11T09:18:44.377Z,6140.00
2023-03-11T09:19:44.386Z,6412.00
2023-03-11T09:20:44.372Z,6224.00
2023-03-11T09:21:44.353Z,9708.00
2023-03-11T09:22:44.345Z,7740.00
2023-03-11T09:23:44.757Z,7444.00
2023-03-11T09:24:45.325Z,11060.00
2023-03-11T09:25:44.328Z,8632.00
2023-03-11T09:26:44.316Z,8612.00
2023-03-11T09:27:44.304Z,6420.00
2023-03-11T09:28:44.299Z,6144.00
2023-03-11T09:29:44.279Z,5976.00
2023-03-11T09:30:44.273Z,7304.00
2023-03-11T09:31:44.283Z,5928.00
2023-03-11T09:32:44.337Z,5760.00
2023-03-11T09:33:44.245Z,5856.00
2023-03-11T09:34:44.227Z,5628.00
2023-03-11T09:35:44.240Z,5136.00
2023-03-11T09:36:44.209Z,4708.00
2023-03-11T09:37:44.205Z,4368.00
2023-03-11T09:38:44.196Z,4100.00
2023-03-11T09:39:44.193Z,3868.00
2023-03-11T09:40:46.888Z,3732.00
2023-03-11T09:41:57.193Z,3672.00
2023-03-11T09:42:46.166Z,3656.00
2023-03-11T09:43:44.138Z,3660.00
2023-03-11T09:44:44.129Z,3704.00
2023-03-11T09:45:44.133Z,3912.00
2023-03-11T09:46:44.142Z,4680.00
2023-03-11T09:47:44.122Z,5752.00
2023-03-11T09:48:44.086Z,6620.00
2023-03-11T09:49:44.081Z,11060.00
2023-03-11T09:50:44.087Z,11572.00
2023-03-11T09:51:44.064Z,11540.00
2023-03-11T09:52:44.057Z,10968.00
2023-03-11T09:53:44.037Z,10344.00
2023-03-11T09:54:45.041Z,9952.00
2023-03-11T09:55:44.032Z,9648.00
2023-03-11T09:56:44.601Z,9640.00
2023-03-11T09:57:44.998Z,9868.00
2023-03-11T09:58:43.992Z,10260.00
2023-03-11T09:59:44.744Z,10624.00
2023-03-11T10:00:44.004Z,10836.00
2023-03-11T10:01:44.046Z,8564.00
2023-03-11T10:02:44.117Z,6984.00
2023-03-11T10:03:43.977Z,7736.00
2023-03-11T10:04:43.942Z,7356.00
2023-03-11T10:05:43.952Z,7368.00
2023-03-11T10:06:43.947Z,6912.00
2023-03-11T10:07:43.929Z,6420.00
2023-03-11T10:08:43.898Z,6060.00
2023-03-11T10:09:43.938Z,5856.00
2023-03-11T10:10:43.909Z,5612.00
2023-03-11T10:11:43.894Z,5332.00
2023-03-11T10:12:43.889Z,5060.00
2023-03-11T10:13:43.887Z,4808.00
2023-03-11T10:14:43.923Z,4584.00
2023-03-11T10:15:43.872Z,4360.00
2023-03-11T10:16:43.929Z,4276.00
2023-03-11T10:17:43.844Z,4480.00
2023-03-11T10:18:43.877Z,4964.00
2023-03-11T10:19:43.841Z,5536.00
2023-03-11T10:20:43.827Z,6100.00
2023-03-11T10:21:43.816Z,6664.00
2023-03-11T10:22:58.774Z,6940.00
2023-03-11T10:23:44.821Z,7172.00
2023-03-11T10:24:43.790Z,7084.00
2023-03-11T10:25:43.820Z,6952.00
2023-03-11T10:26:43.778Z,6668.00
2023-03-11T10:27:43.754Z,6556.00
2023-03-11T10:28:43.768Z,6824.00
2023-03-11T10:29:43.751Z,7036.00
2023-03-11T10:30:43.724Z,7240.00
2023-03-11T10:31:43.764Z,7376.00
2023-03-11T10:32:43.819Z,7316.00
2023-03-11T10:33:45.856Z,7420.00
2023-03-11T10:34:43.693Z,6988.00
2023-03-11T10:35:43.709Z,6560.00
2023-03-11T10:36:43.671Z,6452.00
2023-03-11T10:37:49.860Z,6380.00
2023-03-11T10:38:45.643Z,5684.00
2023-03-11T10:39:43.655Z,5648.00
2023-03-11T10:40:43.671Z,5744.00
2023-03-11T10:41:43.613Z,6088.00
2023-03-11T10:42:43.638Z,6596.00
2023-03-11T10:43:43.626Z,7120.00
2023-03-11T10:44:43.617Z,7396.00
2023-03-11T10:45:43.577Z,7540.00
2023-03-11T10:46:43.656Z,7428.00
2023-03-11T10:47:43.604Z,7124.00
2023-03-11T10:48:43.572Z,6720.00
2023-03-11T10:49:43.535Z,6304.00
2023-03-11T10:50:43.532Z,5824.00
2023-03-11T10:51:43.530Z,5524.00
2023-03-11T10:52:43.491Z,5296.00
2023-03-11T10:53:43.501Z,5148.00
2023-03-11T10:54:45.246Z,5156.00
2023-03-11T10:55:43.517Z,5216.00
2023-03-11T10:56:43.470Z,5260.00
2023-03-11T10:57:43.487Z,5324.00
2023-03-11T10:58:43.463Z,5504.00
2023-03-11T10:59:43.466Z,6012.00
2023-03-11T11:00:43.452Z,6576.00
2023-03-11T11:01:43.482Z,7296.00
2023-03-11T11:02:43.894Z,7980.00
2023-03-11T11:03:44.414Z,8628.00
2023-03-11T11:04:43.382Z,8732.00
2023-03-11T11:05:43.369Z,7996.00
2023-03-11T11:06:43.417Z,8096.00
2023-03-11T11:07:43.374Z,7896.00
2023-03-11T11:08:43.351Z,7864.00
2023-03-11T11:09:43.325Z,8216.00
2023-03-11T11:10:43.313Z,7348.00
2023-03-11T11:11:43.329Z,6968.00
2023-03-11T11:12:43.339Z,6720.00
2023-03-11T11:13:43.289Z,6296.00
2023-03-11T11:14:43.306Z,5796.00
2023-03-11T11:15:43.272Z,5400.00
2023-03-11T11:16:43.272Z,5100.00
2023-03-11T11:17:43.229Z,4852.00
2023-03-11T11:18:43.233Z,4652.00
2023-03-11T11:19:43.207Z,4580.00
2023-03-11T11:20:43.194Z,4720.00
2023-03-11T11:21:43.203Z,4916.00
2023-03-11T11:22:43.183Z,5092.00
2023-03-11T11:23:43.200Z,5328.00
2023-03-11T11:24:43.155Z,5844.00
2023-03-11T11:25:43.148Z,6556.00
2023-03-11T11:26:43.138Z,7024.00
2023-03-11T11:27:43.113Z,7552.00
2023-03-11T11:28:43.118Z,7924.00
2023-03-11T11:29:43.141Z,8084.00
2023-03-11T11:30:43.143Z,8316.00
2023-03-11T11:31:43.104Z,8608.00
2023-03-11T11:32:43.092Z,8872.00
2023-03-11T11:33:43.081Z,8944.00
2023-03-11T11:34:43.082Z,8680.00
2023-03-11T11:35:43.085Z,8156.00
2023-03-11T11:36:43.108Z,7512.00
2023-03-11T11:37:43.076Z,6872.00
2023-03-11T11:38:43.027Z,6048.00
2023-03-11T11:39:43.016Z,5180.00
2023-03-11T11:41:00.250Z,4548.00
2023-03-11T11:41:43.041Z,4136.00
2023-03-11T11:42:42.991Z,3972.00
2023-03-11T11:43:43.022Z,3832.00
2023-03-11T11:44:42.968Z,3716.00
2023-03-11T11:45:43.050Z,3604.00
2023-03-11T11:46:42.955Z,3532.00
2023-03-11T11:47:42.930Z,3428.00
2023-03-11T11:48:42.916Z,3384.00
2023-03-11T11:49:42.945Z,3468.00
2023-03-11T11:50:42.911Z,3556.00
2023-03-11T11:51:42.899Z,3616.00
2023-03-11T11:52:45.064Z,3684.00
2023-03-11T11:53:42.897Z,3808.00
2023-03-11T11:54:42.855Z,4092.00
2023-03-11T11:55:42.877Z,4384.00
2023-03-11T11:56:42.827Z,4324.00
2023-03-11T11:57:42.832Z,4356.00
2023-03-11T11:58:42.824Z,4296.00
2023-03-11T11:59:58.045Z,4072.00
2023-03-11T12:00:42.832Z,3788.00
2023-03-11T12:01:42.835Z,3576.00
2023-03-11T12:02:42.796Z,3428.00
2023-03-11T12:03:42.793Z,3228.00
2023-03-11T12:04:42.797Z,3024.00
2023-03-11T12:05:42.884Z,2860.00
2023-03-11T12:06:42.763Z,2740.00
2023-03-11T12:07:42.734Z,2664.00
2023-03-11T12:08:42.751Z,2640.00
2023-03-11T12:09:42.762Z,2676.00
2023-03-11T12:10:42.705Z,2768.00
2023-03-11T12:11:42.697Z,2860.00
2023-03-11T12:12:42.706Z,2980.00
2023-03-11T12:13:42.746Z,3124.00
2023-03-11T12:14:42.661Z,4380.00
2023-03-11T12:15:42.697Z,4428.00
2023-03-11T12:16:42.646Z,4812.00
2023-03-11T12:17:42.653Z,5352.00
2023-03-11T12:18:42.644Z,5260.00
2023-03-11T12:19:42.601Z,4960.00
2023-03-11T12:20:42.661Z,4580.00
2023-03-11T12:21:42.617Z,4288.00
2023-03-11T12:22:42.600Z,3788.00
2023-03-11T12:23:42.595Z,3496.00
2023-03-11T12:24:42.571Z,3284.00
2023-03-11T12:25:42.556Z,3128.00
2023-03-11T12:26:42.582Z,2936.00
2023-03-11T12:27:42.605Z,2784.00
2023-03-11T12:28:42.539Z,2664.00
2023-03-11T12:29:43.319Z,2608.00
2023-03-11T12:30:43.523Z,2576.00
2023-03-11T12:31:42.666Z,2568.00
2023-03-11T12:32:42.700Z,2568.00
2023-03-11T12:33:42.624Z,2596.00
2023-03-11T12:34:42.572Z,2632.00
2023-03-11T12:35:42.555Z,2636.00
2023-03-11T12:36:42.496Z,2612.00
2023-03-11T12:37:42.475Z,2596.00
2023-03-11T12:38:43.439Z,2624.00
2023-03-11T12:39:42.477Z,2640.00
2023-03-11T12:40:42.493Z,2664.00